createdAt,value
2023-02-12T00:01:29.030Z,9.05
2023-02-12T00:03:57.926Z,8.23
2023-02-12T00:06:26.468Z,9.20
2023-02-12T00:08:56.310Z,9.32
2023-02-12T00:11:27.759Z,9.23
2023-02-12T00:13:56.888Z,10.20
2023-02-12T00:16:27.362Z,9.90
2023-02-12T00:18:57.937Z,9.65
2023-02-12T00:21:26.493Z,9.50
2023-02-12T00:23:54.931Z,9.10
2023-02-12T00:26:25.299Z,9.45
2023-02-12T00:28:55.950Z,9.57
2023-02-12T00:31:26.500Z,9.18
2023-02-12T00:33:55.239Z,8.40
2023-02-12T00:36:25.798Z,9.20
2023-02-12T00:38:55.235Z,9.45
2023-02-12T00:41:24.424Z,9.70
2023-02-12T00:43:54.709Z,9.98
2023-02-12T00:46:23.196Z,9.70
2023-02-12T00:48:51.814Z,8.77
2023-02-12T00:51:20.188Z,8.83
2023-02-12T00:53:48.631Z,9.32
2023-02-12T00:56:16.996Z,9.73
2023-02-12T00:58:45.452Z,8.73
2023-02-12T01:01:15.497Z,8.32
2023-02-12T01:03:43.888Z,8.65
2023-02-12T01:06:12.286Z,10.23
2023-02-12T01:08:40.710Z,8.55
2023-02-12T01:11:09.180Z,9.07
2023-02-12T01:13:37.592Z,8.57
2023-02-12T01:16:09.425Z,9.00
2023-02-12T01:18:40.056Z,9.07
2023-02-12T01:21:13.086Z,8.43
2023-02-12T01:23:41.866Z,8.95
2023-02-12T01:26:12.199Z,9.23
2023-02-12T01:28:41.560Z,11.00
2023-02-12T01:31:12.055Z,9.90
2023-02-12T01:33:42.488Z,11.40
2023-02-12T01:36:12.329Z,10.68
2023-02-12T01:38:40.667Z,11.82
2023-02-12T01:41:11.891Z,10.70
2023-02-12T01:43:40.799Z,10.43
2023-02-12T01:46:11.022Z,11.13
2023-02-12T01:48:43.784Z,12.05
2023-02-12T01:51:16.254Z,10.75
2023-02-12T01:53:50.233Z,10.88
2023-02-12T01:56:19.513Z,10.82
2023-02-12T01:58:49.585Z,10.17
2023-02-12T02:01:20.783Z,11.77
2023-02-12T02:03:53.473Z,11.20
2023-02-12T02:06:25.872Z,10.17
2023-02-12T02:08:54.905Z,11.05
2023-02-12T02:11:41.276Z,10.32
2023-02-12T02:14:27.368Z,10.47
2023-02-12T02:17:03.635Z,9.85
2023-02-12T02:19:51.696Z,9.73
2023-02-12T02:22:33.105Z,10.80
2023-02-12T02:25:37.475Z,10.93
2023-02-12T02:28:23.620Z,10.25
2023-02-12T02:30:59.490Z,9.95
2023-02-12T02:33:38.409Z,9.68
2023-02-12T02:36:17.021Z,10.30
2023-02-12T02:38:51.089Z,10.93
2023-02-12T02:41:27.947Z,10.10
2023-02-12T02:43:57.650Z,10.80
2023-02-12T02:46:34.985Z,11.25
2023-02-12T02:49:07.615Z,10.35
2023-02-12T02:51:43.471Z,10.35
2023-02-12T02:54:16.229Z,11.07
2023-02-12T02:56:49.210Z,11.23
2023-02-12T02:59:20.804Z,10.68
2023-02-12T03:01:53.992Z,11.48
2023-02-12T03:04:27.289Z,10.05
2023-02-12T03:07:00.458Z,11.20
2023-02-12T03:09:33.726Z,11.25
2023-02-12T03:12:07.852Z,11.45
2023-02-12T03:14:41.134Z,11.57
2023-02-12T03:17:14.762Z,10.40
2023-02-12T03:19:47.886Z,11.47
2023-02-12T03:22:19.430Z,10.82
2023-02-12T03:24:52.381Z,11.23
2023-02-12T03:27:24.238Z,10.57
2023-02-12T03:29:53.756Z,10.95
2023-02-12T03:32:32.315Z,10.40
2023-02-12T03:35:10.812Z,10.48
2023-02-12T03:37:44.933Z,11.00
2023-02-12T03:40:18.867Z,11.45
2023-02-12T03:42:55.215Z,10.33
2023-02-12T03:45:36.056Z,11.70
2023-02-12T03:48:13.881Z,12.13
2023-02-12T03:50:54.533Z,11.20
2023-02-12T03:53:22.932Z,12.83
2023-02-12T03:55:58.188Z,11.48
2023-02-12T03:58:30.806Z,11.63
2023-02-12T04:01:00.078Z,10.07
2023-02-12T04:03:31.719Z,11.77
2023-02-12T04:06:00.117Z,11.30
2023-02-12T04:08:31.431Z,11.37
2023-02-12T04:11:09.066Z,11.55
2023-02-12T04:13:48.464Z,11.40
2023-02-12T04:16:26.770Z,11.20
2023-02-12T04:18:57.194Z,11.63
2023-02-12T04:21:42.481Z,11.05
2023-02-12T04:24:20.096Z,12.13
2023-02-12T04:26:56.245Z,10.63
2023-02-12T04:29:33.726Z,11.60
2023-02-12T04:32:09.199Z,11.68
2023-02-12T04:34:46.759Z,11.30
2023-02-12T04:37:20.480Z,11.23
2023-02-12T04:39:50.835Z,12.77
2023-02-12T04:42:48.378Z,12.63
2023-02-12T04:45:21.628Z,12.17
2023-02-12T04:47:50.387Z,11.48
2023-02-12T04:50:21.229Z,11.43
2023-02-12T04:52:49.652Z,12.20
2023-02-12T04:55:18.228Z,11.88
2023-02-12T04:57:46.618Z,11.57
2023-02-12T05:00:16.509Z,12.20
2023-02-12T05:02:44.936Z,11.57
2023-02-12T05:05:13.368Z,12.90
2023-02-12T05:07:43.217Z,11.85
2023-02-12T05:10:12.185Z,12.13
2023-02-12T05:12:40.653Z,11.93
2023-02-12T05:15:09.696Z,11.40
2023-02-12T05:17:38.626Z,10.68
2023-02-12T05:20:08.066Z,12.25
2023-02-12T05:22:36.544Z,12.93
2023-02-12T05:25:07.352Z,13.30
2023-02-12T05:27:35.707Z,13.43
2023-02-12T05:30:05.830Z,11.97
2023-02-12T05:32:34.133Z,13.30
2023-02-12T05:35:03.113Z,12.73
2023-02-12T05:37:31.609Z,13.37
2023-02-12T05:40:00.039Z,13.03
2023-02-12T05:42:30.965Z,12.33
2023-02-12T05:44:59.426Z,12.47
2023-02-12T05:47:29.146Z,13.65
2023-02-12T05:49:57.514Z,12.83
2023-02-12T05:52:26.011Z,11.90
2023-02-12T05:54:54.325Z,11.88
2023-02-12T05:57:22.726Z,12.38
2023-02-12T05:59:52.660Z,13.50
2023-02-12T06:02:21.070Z,11.98
2023-02-12T06:04:49.450Z,12.90
2023-02-12T06:07:17.810Z,11.23
2023-02-12T06:09:46.298Z,13.40
2023-02-12T06:12:14.663Z,12.93
2023-02-12T06:14:43.462Z,12.82
2023-02-12T06:17:13.265Z,13.20
2023-02-12T06:19:41.635Z,11.63
2023-02-12T06:22:10.115Z,11.77
2023-02-12T06:24:38.434Z,12.75
2023-02-12T06:27:07.203Z,12.30
2023-02-12T06:29:35.660Z,12.98
2023-02-12T06:32:04.276Z,12.30
2023-02-12T06:34:34.170Z,12.32
2023-02-12T06:37:02.637Z,12.35
2023-02-12T06:39:31.010Z,12.65
2023-02-12T06:41:59.317Z,13.65
2023-02-12T06:44:28.118Z,13.38
2023-02-12T06:46:57.986Z,12.02
2023-02-12T06:49:26.464Z,13.05
2023-02-12T06:51:56.271Z,12.07
2023-02-12T06:54:24.615Z,12.17
2023-02-12T06:56:53.002Z,12.93
2023-02-12T06:59:21.522Z,11.63
2023-02-12T07:01:50.078Z,13.07
2023-02-12T07:04:18.643Z,12.23
2023-02-12T07:06:47.547Z,13.55
2023-02-12T07:09:17.405Z,13.82
2023-02-12T07:11:45.794Z,12.00
2023-02-12T07:14:16.705Z,14.87
2023-02-12T07:16:45.259Z,13.27
2023-02-12T07:19:16.985Z,15.65
2023-02-12T07:21:45.376Z,15.35
2023-02-12T07:24:14.538Z,14.50
2023-02-12T07:26:44.381Z,15.20
2023-02-12T07:29:12.956Z,15.60
2023-02-12T07:31:42.104Z,15.57
2023-02-12T07:34:11.923Z,15.52
2023-02-12T07:36:40.941Z,16.05
2023-02-12T07:39:09.314Z,15.82
2023-02-12T07:41:38.121Z,17.00
2023-02-12T07:44:10.477Z,16.52
2023-02-12T07:46:41.185Z,17.52
2023-02-12T07:49:13.952Z,16.58
2023-02-12T07:51:42.873Z,16.25
2023-02-12T07:54:12.879Z,13.68
2023-02-12T07:56:42.911Z,13.68
2023-02-12T07:59:15.607Z,13.43
2023-02-12T08:01:47.301Z,13.05
2023-02-12T08:04:18.101Z,14.07
2023-02-12T08:06:48.087Z,14.98
2023-02-12T08:09:18.255Z,15.35
2023-02-12T08:11:47.603Z,14.52
2023-02-12T08:14:19.230Z,14.45
2023-02-12T08:16:51.806Z,13.75
2023-02-12T08:19:24.883Z,14.65
2023-02-12T08:21:56.046Z,14.05
2023-02-12T08:24:24.881Z,15.50
2023-02-12T08:26:53.669Z,15.00
2023-02-12T08:29:25.304Z,15.45
2023-02-12T08:31:57.819Z,15.77
2023-02-12T08:34:28.238Z,14.98
2023-02-12T08:36:57.992Z,16.13
2023-02-12T08:39:28.302Z,14.27
2023-02-12T08:41:57.041Z,15.65
2023-02-12T08:44:27.885Z,15.93
2023-02-12T08:46:56.774Z,14.63
2023-02-12T08:49:26.959Z,15.90
2023-02-12T08:51:57.168Z,15.32
2023-02-12T08:54:27.548Z,15.60
2023-02-12T08:56:57.920Z,14.88
2023-02-12T08:59:28.316Z,15.15
2023-02-12T09:01:57.064Z,15.75
2023-02-12T09:04:27.881Z,14.50
2023-02-12T09:06:56.816Z,16.48
2023-02-12T09:09:25.273Z,15.02
2023-02-12T09:11:53.657Z,15.23
2023-02-12T09:14:24.108Z,16.17
2023-02-12T09:16:54.825Z,15.55
2023-02-12T09:19:23.434Z,14.73
2023-02-12T09:21:55.762Z,16.23
2023-02-12T09:24:24.795Z,15.25
2023-02-12T09:26:53.216Z,16.75
2023-02-12T09:29:21.619Z,16.33
2023-02-12T09:31:50.056Z,16.17
2023-02-12T09:34:21.004Z,16.67
2023-02-12T09:36:49.335Z,17.60
2023-02-12T09:39:17.771Z,14.75
2023-02-12T09:42:21.412Z,13.85
2023-02-12T09:45:00.807Z,18.33
2023-02-12T09:47:36.634Z,15.07
2023-02-12T09:50:18.325Z,15.32
2023-02-12T09:52:46.824Z,14.77
2023-02-12T09:55:17.834Z,15.25
2023-02-12T09:57:47.348Z,15.05
2023-02-12T10:00:19.576Z,15.63
2023-02-12T10:02:51.564Z,15.43
2023-02-12T10:05:25.201Z,16.42
2023-02-12T10:08:14.452Z,14.93
2023-02-12T10:10:53.013Z,14.35
2023-02-12T10:13:33.796Z,14.15
2023-02-12T10:16:13.375Z,14.48
2023-02-12T10:19:09.913Z,14.35
2023-02-12T10:21:53.379Z,15.02
2023-02-12T10:24:36.014Z,15.55
2023-02-12T10:27:12.931Z,15.40
2023-02-12T10:29:43.905Z,16.17
2023-02-12T10:32:19.683Z,17.42
2023-02-12T10:34:49.804Z,13.68
2023-02-12T10:37:32.451Z,14.18
2023-02-12T10:40:06.229Z,13.57
2023-02-12T10:42:40.388Z,14.73
2023-02-12T10:45:15.630Z,15.43
2023-02-12T10:47:45.078Z,13.13
2023-02-12T10:50:23.195Z,13.98
2023-02-12T10:52:57.240Z,14.27
2023-02-12T10:55:28.313Z,13.32
2023-02-12T10:57:57.146Z,14.68
2023-02-12T11:00:30.345Z,16.42
2023-02-12T11:03:05.922Z,14.75
2023-02-12T11:05:37.357Z,14.50
2023-02-12T11:08:08.252Z,15.30
2023-02-12T11:10:40.516Z,14.10
2023-02-12T11:13:24.551Z,16.35
2023-02-12T11:15:53.833Z,15.70
2023-02-12T11:18:26.477Z,15.82
2023-02-12T11:20:58.522Z,16.67
2023-02-12T11:23:30.469Z,16.95
2023-02-12T11:26:02.335Z,16.15
2023-02-12T11:28:33.535Z,17.30
2023-02-12T11:31:04.075Z,17.20
2023-02-12T11:33:35.024Z,16.77
2023-02-12T11:36:09.095Z,17.00
2023-02-12T11:38:48.356Z,16.75
2023-02-12T11:41:26.143Z,13.25
2023-02-12T11:43:55.072Z,14.32
2023-02-12T11:46:26.066Z,14.13
2023-02-12T11:48:56.685Z,14.90
2023-02-12T11:51:29.352Z,13.02
2023-02-12T11:54:01.890Z,14.95
2023-02-12T11:56:43.880Z,15.20
2023-02-12T11:59:22.487Z,14.45
2023-02-12T12:01:52.735Z,15.32
2023-02-12T12:04:26.951Z,14.38
2023-02-12T12:07:03.503Z,15.10
2023-02-12T12:09:40.850Z,13.68
2023-02-12T12:12:14.154Z,10.98
2023-02-12T12:15:04.561Z,11.57
2023-02-12T12:18:02.894Z,13.32
2023-02-12T12:20:36.637Z,12.02
2023-02-12T12:23:11.309Z,11.55
2023-02-12T12:25:47.795Z,12.10
2023-02-12T12:28:36.410Z,12.70
2023-02-12T12:31:11.886Z,10.63
2023-02-12T12:33:45.395Z,12.27
2023-02-12T12:36:52.689Z,11.63
2023-02-12T12:39:35.269Z,11.15
2023-02-12T12:42:46.532Z,10.57
2023-02-12T12:45:32.504Z,11.63
2023-02-12T12:48:13.254Z,11.70
2023-02-12T12:51:03.011Z,10.07
2023-02-12T12:53:48.419Z,11.10
2023-02-12T12:56:29.058Z,11.25
2023-02-12T12:59:17.987Z,11.68
2023-02-12T13:02:23.586Z,12.60
2023-02-12T13:05:22.613Z,12.02
2023-02-12T13:08:00.222Z,11.40
2023-02-12T13:10:35.280Z,11.60
2023-02-12T13:13:16.551Z,10.68
2023-02-12T13:15:55.823Z,12.95
2023-02-12T13:18:36.452Z,12.30
2023-02-12T13:21:11.032Z,12.25
2023-02-12T13:23:47.293Z,11.77
2023-02-12T13:26:21.357Z,11.82
2023-02-12T13:28:53.614Z,12.02
2023-02-12T13:31:34.478Z,12.77
2023-02-12T13:34:08.279Z,11.93
2023-02-12T13:36:38.950Z,13.25
2023-02-12T13:39:16.283Z,13.13
2023-02-12T13:41:53.720Z,15.13
2023-02-12T13:44:31.746Z,13.52
2023-02-12T13:47:11.047Z,13.43
2023-02-12T13:49:48.299Z,13.85
2023-02-12T13:52:26.764Z,14.38
2023-02-12T13:55:06.220Z,12.90
2023-02-12T13:57:34.564Z,14.05
2023-02-12T14:00:08.423Z,12.13
2023-02-12T14:02:50.431Z,12.82
2023-02-12T14:05:24.517Z,14.20
2023-02-12T14:07:55.900Z,15.63
2023-02-12T14:10:30.858Z,15.93
2023-02-12T14:13:12.270Z,14.48
2023-02-12T14:15:44.720Z,16.45
2023-02-12T14:18:33.202Z,15.32
2023-02-12T14:21:38.184Z,15.05
2023-02-12T14:24:52.301Z,14.35
2023-02-12T14:27:43.227Z,15.45
2023-02-12T14:30:30.957Z,16.52
2023-02-12T14:33:11.048Z,14.75
2023-02-12T14:35:42.857Z,13.32
2023-02-12T14:38:53.875Z,13.80
2023-02-12T14:41:42.736Z,13.48
2023-02-12T14:44:39.521Z,13.77
2023-02-12T14:47:17.423Z,13.98
2023-02-12T14:49:48.610Z,13.65
2023-02-12T14:52:23.741Z,12.10
2023-02-12T14:54:54.667Z,12.38
2023-02-12T14:57:27.391Z,13.05
2023-02-12T14:59:59.216Z,14.25
2023-02-12T15:02:30.722Z,13.45
2023-02-12T15:05:03.604Z,12.63
2023-02-12T15:07:38.528Z,14.43
2023-02-12T15:10:14.026Z,14.13
2023-02-12T15:12:47.541Z,12.25
2023-02-12T15:15:22.864Z,11.02
2023-02-12T15:17:58.591Z,12.60
2023-02-12T15:20:32.751Z,13.35
2023-02-12T15:23:03.850Z,12.05
2023-02-12T15:25:33.866Z,13.02
2023-02-12T15:28:07.572Z,13.20
2023-02-12T15:30:38.116Z,11.75
2023-02-12T15:33:09.018Z,11.65
2023-02-12T15:35:41.087Z,12.40
2023-02-12T15:38:21.826Z,13.63
2023-02-12T15:40:57.352Z,13.75
2023-02-12T15:43:30.371Z,13.20
2023-02-12T15:45:59.157Z,11.98
2023-02-12T15:48:32.528Z,12.02
2023-02-12T15:51:08.923Z,12.35
2023-02-12T15:53:40.943Z,12.50
2023-02-12T15:56:16.098Z,12.02
2023-02-12T15:58:49.870Z,13.07
2023-02-12T16:01:21.885Z,12.98
2023-02-12T16:03:52.476Z,13.85
2023-02-12T16:06:22.334Z,12.82
2023-02-12T16:08:57.417Z,11.52
2023-02-12T16:11:27.441Z,11.88
2023-02-12T16:13:59.493Z,12.75
2023-02-12T16:16:31.990Z,12.02
2023-02-12T16:19:19.683Z,12.48
2023-02-12T16:21:50.758Z,11.35
2023-02-12T16:24:30.650Z,10.82
2023-02-12T16:27:03.155Z,10.80
2023-02-12T16:29:33.870Z,10.68
2023-02-12T16:32:04.116Z,11.13
2023-02-12T16:34:35.918Z,10.38
2023-02-12T16:37:06.310Z,10.30
2023-02-12T16:40:10.335Z,9.98
2023-02-12T16:42:40.526Z,10.35
2023-02-12T16:45:36.931Z,11.48
2023-02-12T16:48:25.283Z,10.65
2023-02-12T16:50:56.664Z,9.98
2023-02-12T16:53:47.023Z,9.48
2023-02-12T16:56:18.485Z,9.05
2023-02-12T16:58:50.301Z,10.10
2023-02-12T17:01:23.277Z,10.02
2023-02-12T17:03:52.338Z,9.70
2023-02-12T17:06:22.735Z,9.90
2023-02-12T17:08:51.220Z,10.52
2023-02-12T17:11:19.670Z,11.00
2023-02-12T17:13:51.394Z,11.40
2023-02-12T17:16:30.208Z,9.57
2023-02-12T17:18:59.863Z,7.95
2023-02-12T17:21:31.105Z,8.20
2023-02-12T17:23:59.710Z,9.25
2023-02-12T17:26:29.191Z,9.30
2023-02-12T17:29:05.667Z,10.20
2023-02-12T17:31:34.657Z,10.82
2023-02-12T17:34:04.492Z,8.85
2023-02-12T17:36:34.516Z,10.07
2023-02-12T17:39:05.626Z,10.93
2023-02-12T17:41:34.506Z,11.63
2023-02-12T17:44:04.323Z,11.73
2023-02-12T17:46:32.957Z,11.07
2023-02-12T17:49:01.467Z,12.07
2023-02-12T17:51:30.400Z,11.55
2023-02-12T17:53:58.866Z,11.57
2023-02-12T17:56:27.311Z,10.15
2023-02-12T17:58:55.955Z,10.88
2023-02-12T18:01:26.007Z,11.45
2023-02-12T18:03:57.041Z,13.02
2023-02-12T18:06:28.603Z,15.23
2023-02-12T18:08:58.678Z,19.38
2023-02-12T18:11:27.808Z,17.27
2023-02-12T18:13:57.435Z,16.30
2023-02-12T18:16:30.801Z,15.32
2023-02-12T18:19:01.260Z,18.48
2023-02-12T18:21:30.355Z,19.42
2023-02-12T18:23:58.734Z,17.70
2023-02-12T18:26:27.112Z,19.58
2023-02-12T18:28:55.715Z,19.08
2023-02-12T18:31:24.136Z,19.45
2023-02-12T18:33:54.432Z,18.95
2023-02-12T18:36:23.901Z,19.60
2023-02-12T18:38:53.509Z,19.45
2023-02-12T18:41:23.809Z,19.05
2023-02-12T18:43:52.233Z,19.75
2023-02-12T18:46:22.435Z,20.73
2023-02-12T18:48:51.751Z,21.60
2023-02-12T18:51:23.475Z,22.58
2023-02-12T18:53:56.504Z,21.92
2023-02-12T18:56:25.082Z,22.95
2023-02-12T18:58:57.021Z,22.10
2023-02-12T19:01:26.773Z,22.98
2023-02-12T19:03:56.380Z,23.05
2023-02-12T19:06:26.896Z,21.08
2023-02-12T19:08:56.630Z,21.45
2023-02-12T19:11:25.414Z,22.90
2023-02-12T19:13:54.982Z,23.92
2023-02-12T19:16:24.906Z,20.95
2023-02-12T19:18:55.714Z,22.27
2023-02-12T19:21:26.485Z,24.35
2023-02-12T19:23:55.234Z,24.45
2023-02-12T19:26:24.328Z,23.73
2023-02-12T19:28:53.154Z,24.30
2023-02-12T19:31:23.960Z,23.65
2023-02-12T19:33:57.196Z,24.02
2023-02-12T19:36:28.408Z,25.95
2023-02-12T19:38:56.984Z,27.67
2023-02-12T19:41:27.276Z,24.30
2023-02-12T19:43:58.291Z,24.35
2023-02-12T19:46:28.258Z,24.98
2023-02-12T19:48:58.279Z,25.33
2023-02-12T19:51:29.563Z,28.05
2023-02-12T19:54:01.760Z,25.08
2023-02-12T19:56:30.318Z,25.08
2023-02-12T19:58:59.123Z,24.92
2023-02-12T20:01:28.483Z,28.88
2023-02-12T20:03:58.059Z,28.30
2023-02-12T20:06:29.781Z,33.20
2023-02-12T20:08:58.463Z,28.80
2023-02-12T20:11:29.410Z,25.98
2023-02-12T20:13:58.205Z,25.30
2023-02-12T20:16:31.275Z,28.38
2023-02-12T20:19:02.278Z,27.83
2023-02-12T20:21:33.144Z,27.98
2023-02-12T20:24:02.356Z,29.67
2023-02-12T20:26:32.106Z,27.92
2023-02-12T20:29:02.803Z,28.00
2023-02-12T20:31:35.065Z,27.88
2023-02-12T20:34:05.648Z,24.15
2023-02-12T20:36:38.133Z,24.75
2023-02-12T20:39:08.820Z,24.40
2023-02-12T20:41:37.510Z,25.52
2023-02-12T20:44:07.664Z,26.83
2023-02-12T20:46:39.367Z,26.70
2023-02-12T20:49:07.991Z,26.33
2023-02-12T20:51:37.786Z,27.17
2023-02-12T20:54:06.280Z,25.58
2023-02-12T20:56:37.647Z,27.55
2023-02-12T20:59:07.962Z,28.55
2023-02-12T21:01:37.990Z,26.00
2023-02-12T21:04:08.559Z,27.35
2023-02-12T21:06:40.472Z,27.63
2023-02-12T21:09:09.671Z,25.77
2023-02-12T21:11:39.049Z,26.13
2023-02-12T21:14:21.426Z,26.33
2023-02-12T21:16:52.012Z,26.63
2023-02-12T21:19:21.006Z,26.67
2023-02-12T21:21:51.002Z,25.50
2023-02-12T21:24:21.947Z,26.13
2023-02-12T21:26:51.234Z,25.90
2023-02-12T21:29:20.497Z,26.88
2023-02-12T21:31:50.530Z,25.77
2023-02-12T21:34:21.240Z,26.88
2023-02-12T21:36:53.343Z,26.00
2023-02-12T21:39:26.307Z,25.85
2023-02-12T21:41:56.444Z,26.52
2023-02-12T21:44:26.453Z,25.60
2023-02-12T21:46:55.315Z,26.15
2023-02-12T21:49:28.555Z,25.25
2023-02-12T21:52:02.276Z,25.92
2023-02-12T21:54:49.819Z,25.45
2023-02-12T21:57:19.969Z,26.48
2023-02-12T21:59:48.433Z,25.33
2023-02-12T22:02:16.905Z,25.15
2023-02-12T22:04:45.547Z,25.83
2023-02-12T22:07:16.061Z,23.70
2023-02-12T22:09:44.528Z,26.52
2023-02-12T22:12:13.206Z,24.38
2023-02-12T22:14:41.617Z,25.25
2023-02-12T22:17:10.028Z,24.65
2023-02-12T22:19:38.354Z,26.02
2023-02-12T22:22:06.862Z,23.38
2023-02-12T22:24:37.908Z,25.85
2023-02-12T22:27:06.482Z,23.25
2023-02-12T22:29:35.057Z,25.73
2023-02-12T22:32:03.535Z,25.35
2023-02-12T22:34:32.174Z,26.25
2023-02-12T22:37:00.574Z,25.77
2023-02-12T22:39:30.776Z,23.83
2023-02-12T22:42:00.582Z,23.80
2023-02-12T22:44:29.053Z,24.63
2023-02-12T22:46:57.487Z,22.10
2023-02-12T22:49:25.963Z,24.77
2023-02-12T22:51:54.516Z,24.05
2023-02-12T22:54:22.942Z,23.27
2023-02-12T22:56:52.484Z,23.38
2023-02-12T22:59:22.362Z,23.92
2023-02-12T23:01:50.782Z,22.23
2023-02-12T23:04:20.028Z,24.60
2023-02-12T23:06:48.834Z,22.83
2023-02-12T23:09:19.120Z,23.58
2023-02-12T23:11:48.253Z,23.42
2023-02-12T23:14:16.787Z,23.25
2023-02-12T23:16:46.915Z,24.42
2023-02-12T23:19:16.275Z,22.02
2023-02-12T23:21:44.750Z,22.38
2023-02-12T23:24:15.253Z,24.10
2023-02-12T23:26:43.748Z,24.35
2023-02-12T23:29:12.221Z,23.60
2023-02-12T23:31:40.718Z,24.67
2023-02-12T23:34:10.555Z,23.08
2023-02-12T23:36:38.974Z,22.65
2023-02-12T23:39:07.346Z,23.50
2023-02-12T23:41:35.858Z,23.17
2023-02-12T23:44:04.329Z,24.67
2023-02-12T23:46:32.789Z,23.25
2023-02-12T23:49:01.133Z,23.85
2023-02-12T23:51:30.856Z,22.25
2023-02-12T23:53:59.251Z,23.35
2023-02-12T23:56:27.662Z,24.88
2023-02-12T23:58:57.781Z,22.58
